Forestburgh, New York
Current Conditions -  °F | °C
As of 11:35 PM on Monday 22 Dec 2014 (Local Time) from KMSV Reporting Station
Overcast Overcast  
Wind Chill: 26°   Ceiling: 200
Heat Index: 34°   Visibility: 1mi
Dew Point: 34°   Wind: 10mph
Humidity: 100%   Direction: 90°E
Pressure: 30.15"   Gusts: NA
Location:  41.59°N, 74.71°W
Report Text: KMSV 230435Z AUTO 09009KT 1SM OVC002 01/01 A3015 RMK AO1
Loading
Personal Weather Stations






























Interactive Weather Map New forecast layout! Learn more

10-Day Weather Forecast

Advertisements
Track Severe Weather on mobile